sensor_id;sensor_type;location;lat;lon;timestamp;P1;durP1;ratioP1;P2;durP2;ratioP2
50086;SDS011;35967;50.718;7.050;2023-10-19T00:08:17;17.33;;;9.37;;
50086;SDS011;35967;50.718;7.050;2023-10-19T00:18:21;14.73;;;8.87;;
50086;SDS011;35967;50.718;7.050;2023-10-19T00:28:27;17.07;;;10.80;;
50086;SDS011;35967;50.718;7.050;2023-10-19T00:38:30;16.43;;;10.20;;
50086;SDS011;35967;50.718;7.050;2023-10-19T00:48:45;15.57;;;9.87;;
50086;SDS011;35967;50.718;7.050;2023-10-19T00:58:50;20.53;;;11.10;;
50086;SDS011;35967;50.718;7.050;2023-10-19T01:08:59;13.83;;;9.03;;
50086;SDS011;35967;50.718;7.050;2023-10-19T01:19:04;13.13;;;9.13;;
50086;SDS011;35967;50.718;7.050;2023-10-19T01:29:10;14.60;;;10.30;;
50086;SDS011;35967;50.718;7.050;2023-10-19T01:39:18;17.73;;;10.95;;
50086;SDS011;35967;50.718;7.050;2023-10-19T01:49:22;16.73;;;10.27;;
50086;SDS011;35967;50.718;7.050;2023-10-19T01:59:29;14.67;;;8.80;;
50086;SDS011;35967;50.718;7.050;2023-10-19T02:09:34;12.77;;;8.10;;
50086;SDS011;35967;50.718;7.050;2023-10-19T02:19:37;11.47;;;7.37;;
50086;SDS011;35967;50.718;7.050;2023-10-19T02:29:41;8.80;;;6.17;;
50086;SDS011;35967;50.718;7.050;2023-10-19T02:39:45;12.90;;;6.33;;
50086;SDS011;35967;50.718;7.050;2023-10-19T02:49:52;13.23;;;7.63;;
50086;SDS011;35967;50.718;7.050;2023-10-19T02:59:57;10.20;;;7.20;;
50086;SDS011;35967;50.718;7.050;2023-10-19T03:10:03;14.43;;;7.23;;
50086;SDS011;35967;50.718;7.050;2023-10-19T03:20:08;9.97;;;6.30;;
50086;SDS011;35967;50.718;7.050;2023-10-19T03:30:14;10.87;;;6.90;;
50086;SDS011;35967;50.718;7.050;2023-10-19T03:40:19;10.23;;;6.33;;
50086;SDS011;35967;50.718;7.050;2023-10-19T03:50:31;7.93;;;6.07;;
50086;SDS011;35967;50.718;7.050;2023-10-19T04:00:38;9.20;;;5.73;;
50086;SDS011;35967;50.718;7.050;2023-10-19T04:10:42;9.30;;;5.30;;
50086;SDS011;35967;50.718;7.050;2023-10-19T04:20:49;7.97;;;5.80;;
50086;SDS011;35967;50.718;7.050;2023-10-19T04:30:59;12.37;;;5.67;;
50086;SDS011;35967;50.718;7.050;2023-10-19T04:41:05;13.77;;;6.50;;
50086;SDS011;35967;50.718;7.050;2023-10-19T04:51:13;13.37;;;6.83;;
50086;SDS011;35967;50.718;7.050;2023-10-19T05:01:17;16.73;;;7.23;;
50086;SDS011;35967;50.718;7.050;2023-10-19T05:11:21;12.07;;;6.77;;
50086;SDS011;35967;50.718;7.050;2023-10-19T05:21:24;11.67;;;6.97;;
50086;SDS011;35967;50.718;7.050;2023-10-19T05:31:28;16.03;;;8.50;;
50086;SDS011;35967;50.718;7.050;2023-10-19T05:41:33;15.80;;;9.10;;
50086;SDS011;35967;50.718;7.050;2023-10-19T05:51:37;18.90;;;8.63;;
50086;SDS011;35967;50.718;7.050;2023-10-19T06:01:40;15.47;;;8.27;;
50086;SDS011;35967;50.718;7.050;2023-10-19T06:11:45;13.27;;;7.60;;
50086;SDS011;35967;50.718;7.050;2023-10-19T06:21:49;13.73;;;7.33;;
50086;SDS011;35967;50.718;7.050;2023-10-19T06:31:54;12.93;;;7.43;;
50086;SDS011;35967;50.718;7.050;2023-10-19T06:41:57;12.53;;;5.77;;
50086;SDS011;35967;50.718;7.050;2023-10-19T06:52:02;11.40;;;5.57;;
50086;SDS011;35967;50.718;7.050;2023-10-19T07:02:06;13.33;;;5.07;;
50086;SDS011;35967;50.718;7.050;2023-10-19T07:12:11;12.77;;;4.57;;
50086;SDS011;35967;50.718;7.050;2023-10-19T07:22:14;13.57;;;4.23;;
50086;SDS011;35967;50.718;7.050;2023-10-19T07:32:19;7.00;;;2.90;;
50086;SDS011;35967;50.718;7.050;2023-10-19T07:42:23;12.53;;;3.43;;
50086;SDS011;35967;50.718;7.050;2023-10-19T07:52:28;9.27;;;2.47;;
50086;SDS011;35967;50.718;7.050;2023-10-19T08:02:32;11.20;;;2.30;;
50086;SDS011;35967;50.718;7.050;2023-10-19T08:12:38;10.53;;;2.13;;
50086;SDS011;35967;50.718;7.050;2023-10-19T08:22:43;12.73;;;1.50;;
50086;SDS011;35967;50.718;7.050;2023-10-19T08:32:50;9.93;;;1.57;;
50086;SDS011;35967;50.718;7.050;2023-10-19T08:42:54;10.80;;;1.93;;
50086;SDS011;35967;50.718;7.050;2023-10-19T08:52:59;11.63;;;1.70;;
50086;SDS011;35967;50.718;7.050;2023-10-19T09:03:04;7.67;;;1.20;;
50086;SDS011;35967;50.718;7.050;2023-10-19T09:13:12;8.20;;;1.70;;
50086;SDS011;35967;50.718;7.050;2023-10-19T09:23:18;8.17;;;1.17;;
50086;SDS011;35967;50.718;7.050;2023-10-19T09:33:24;11.53;;;1.73;;
50086;SDS011;35967;50.718;7.050;2023-10-19T09:53:38;7.40;;;1.27;;
50086;SDS011;35967;50.718;7.050;2023-10-19T10:03:43;12.17;;;1.20;;
50086;SDS011;35967;50.718;7.050;2023-10-19T10:13:52;12.20;;;1.47;;
50086;SDS011;35967;50.718;7.050;2023-10-19T10:23:56;5.90;;;1.10;;
50086;SDS011;35967;50.718;7.050;2023-10-19T10:34:02;9.00;;;1.00;;
50086;SDS011;35967;50.718;7.050;2023-10-19T10:44:09;6.60;;;0.97;;
50086;SDS011;35967;50.718;7.050;2023-10-19T10:54:14;7.97;;;1.00;;
50086;SDS011;35967;50.718;7.050;2023-10-19T11:04:17;10.83;;;1.10;;
50086;SDS011;35967;50.718;7.050;2023-10-19T11:14:22;11.63;;;1.47;;
50086;SDS011;35967;50.718;7.050;2023-10-19T11:24:27;8.67;;;1.27;;
50086;SDS011;35967;50.718;7.050;2023-10-19T11:34:36;10.33;;;1.90;;
50086;SDS011;35967;50.718;7.050;2023-10-19T11:44:40;16.03;;;3.20;;
50086;SDS011;35967;50.718;7.050;2023-10-19T11:54:46;10.60;;;2.23;;
50086;SDS011;35967;50.718;7.050;2023-10-19T12:04:49;11.13;;;1.70;;
50086;SDS011;35967;50.718;7.050;2023-10-19T12:14:53;13.27;;;1.87;;
50086;SDS011;35967;50.718;7.050;2023-10-19T12:24:57;10.43;;;1.70;;
50086;SDS011;35967;50.718;7.050;2023-10-19T12:35:02;17.07;;;2.23;;
50086;SDS011;35967;50.718;7.050;2023-10-19T12:45:14;10.23;;;1.77;;
50086;SDS011;35967;50.718;7.050;2023-10-19T12:55:23;10.50;;;1.50;;
50086;SDS011;35967;50.718;7.050;2023-10-19T13:05:31;21.30;;;2.80;;
50086;SDS011;35967;50.718;7.050;2023-10-19T13:15:36;15.00;;;1.57;;
50086;SDS011;35967;50.718;7.050;2023-10-19T13:25:39;13.60;;;2.80;;
50086;SDS011;35967;50.718;7.050;2023-10-19T13:35:49;12.63;;;1.80;;
50086;SDS011;35967;50.718;7.050;2023-10-19T13:45:53;16.30;;;1.67;;
50086;SDS011;35967;50.718;7.050;2023-10-19T13:55:57;16.70;;;2.27;;
50086;SDS011;35967;50.718;7.050;2023-10-19T14:06:01;10.63;;;2.10;;
50086;SDS011;35967;50.718;7.050;2023-10-19T14:16:09;13.20;;;2.30;;
50086;SDS011;35967;50.718;7.050;2023-10-19T14:26:12;9.37;;;2.77;;
50086;SDS011;35967;50.718;7.050;2023-10-19T14:36:17;12.57;;;3.43;;
50086;SDS011;35967;50.718;7.050;2023-10-19T14:46:22;9.87;;;4.50;;
50086;SDS011;35967;50.718;7.050;2023-10-19T14:56:26;11.47;;;4.00;;
50086;SDS011;35967;50.718;7.050;2023-10-19T15:06:29;9.50;;;4.40;;
50086;SDS011;35967;50.718;7.050;2023-10-19T15:16:38;12.57;;;4.27;;
50086;SDS011;35967;50.718;7.050;2023-10-19T15:26:41;11.60;;;3.80;;
50086;SDS011;35967;50.718;7.050;2023-10-19T15:36:46;13.73;;;3.83;;
50086;SDS011;35967;50.718;7.050;2023-10-19T15:46:49;7.97;;;3.53;;
50086;SDS011;35967;50.718;7.050;2023-10-19T15:56:55;10.90;;;3.47;;
50086;SDS011;35967;50.718;7.050;2023-10-19T16:06:58;7.63;;;3.53;;
50086;SDS011;35967;50.718;7.050;2023-10-19T16:17:03;8.37;;;4.23;;
50086;SDS011;35967;50.718;7.050;2023-10-19T16:27:07;10.07;;;4.40;;
50086;SDS011;35967;50.718;7.050;2023-10-19T16:37:11;7.53;;;3.83;;
50086;SDS011;35967;50.718;7.050;2023-10-19T16:47:14;6.93;;;4.13;;
50086;SDS011;35967;50.718;7.050;2023-10-19T16:57:19;7.47;;;4.07;;
50086;SDS011;35967;50.718;7.050;2023-10-19T17:07:23;11.10;;;4.40;;
50086;SDS011;35967;50.718;7.050;2023-10-19T17:17:28;10.17;;;4.43;;
50086;SDS011;35967;50.718;7.050;2023-10-19T17:27:32;6.93;;;4.63;;
50086;SDS011;35967;50.718;7.050;2023-10-19T17:37:36;8.53;;;5.07;;
50086;SDS011;35967;50.718;7.050;2023-10-19T17:47:39;9.93;;;4.87;;
50086;SDS011;35967;50.718;7.050;2023-10-19T17:57:44;6.40;;;3.90;;
50086;SDS011;35967;50.718;7.050;2023-10-19T18:17:56;9.47;;;4.53;;
50086;SDS011;35967;50.718;7.050;2023-10-19T18:27:59;6.57;;;4.50;;
50086;SDS011;35967;50.718;7.050;2023-10-19T18:38:04;9.43;;;5.30;;
50086;SDS011;35967;50.718;7.050;2023-10-19T18:48:08;10.40;;;5.80;;
50086;SDS011;35967;50.718;7.050;2023-10-19T18:58:12;8.93;;;4.67;;
50086;SDS011;35967;50.718;7.050;2023-10-19T19:08:16;9.00;;;3.60;;
50086;SDS011;35967;50.718;7.050;2023-10-19T19:18:20;9.00;;;3.90;;
50086;SDS011;35967;50.718;7.050;2023-10-19T19:28:24;5.87;;;3.77;;
50086;SDS011;35967;50.718;7.050;2023-10-19T19:38:30;5.43;;;2.90;;
50086;SDS011;35967;50.718;7.050;2023-10-19T19:48:34;13.57;;;4.80;;
50086;SDS011;35967;50.718;7.050;2023-10-19T19:58:38;6.60;;;4.00;;
50086;SDS011;35967;50.718;7.050;2023-10-19T20:08:41;7.50;;;4.43;;
50086;SDS011;35967;50.718;7.050;2023-10-19T20:18:46;7.20;;;5.00;;
50086;SDS011;35967;50.718;7.050;2023-10-19T20:28:50;8.10;;;4.77;;
50086;SDS011;35967;50.718;7.050;2023-10-19T20:38:54;9.17;;;5.43;;
50086;SDS011;35967;50.718;7.050;2023-10-19T20:48:57;9.97;;;5.40;;
50086;SDS011;35967;50.718;7.050;2023-10-19T20:59:03;12.23;;;6.20;;
50086;SDS011;35967;50.718;7.050;2023-10-19T21:09:06;15.03;;;7.70;;
50086;SDS011;35967;50.718;7.050;2023-10-19T21:19:11;12.27;;;9.23;;
50086;SDS011;35967;50.718;7.050;2023-10-19T21:29:34;12.87;;;9.00;;
50086;SDS011;35967;50.718;7.050;2023-10-19T21:39:38;12.13;;;8.30;;
50086;SDS011;35967;50.718;7.050;2023-10-19T21:49:42;15.53;;;8.10;;
50086;SDS011;35967;50.718;7.050;2023-10-19T21:59:46;12.73;;;8.43;;
50086;SDS011;35967;50.718;7.050;2023-10-19T22:09:50;12.70;;;9.40;;
50086;SDS011;35967;50.718;7.050;2023-10-19T22:19:56;10.90;;;8.13;;
50086;SDS011;35967;50.718;7.050;2023-10-19T22:29:59;13.30;;;6.67;;
50086;SDS011;35967;50.718;7.050;2023-10-19T22:40:05;11.10;;;6.17;;
50086;SDS011;35967;50.718;7.050;2023-10-19T22:50:09;7.43;;;5.50;;
50086;SDS011;35967;50.718;7.050;2023-10-19T23:00:14;10.03;;;5.37;;
50086;SDS011;35967;50.718;7.050;2023-10-19T23:10:19;7.13;;;5.67;;
50086;SDS011;35967;50.718;7.050;2023-10-19T23:20:32;8.77;;;5.93;;
50086;SDS011;35967;50.718;7.050;2023-10-19T23:30:35;9.10;;;6.20;;
50086;SDS011;35967;50.718;7.050;2023-10-19T23:40:42;12.00;;;6.57;;
50086;SDS011;35967;50.718;7.050;2023-10-19T23:50:45;8.33;;;6.90;;
